Scroll down
FLIGHT INFORMATION
British Airways

BAW224

At Arrival Gate

EGLL
 EGCC
DATE: 2019-02-24
GATE: 556
GATE DEPARTURE: 22:15
TAKEOFF: 22:26
DATE: 2019-02-24
GATE:  -
LANDING: 22:58
GATE ARRIVAL: 23:07
FLIGHT DATA
Crew: 
Speed: 
854 kph
Altitude: 
25,007 ft
Stage Length: 
242.2 km
Block Time: 
0.8 hrs
Flight Time: 
0.5 hrs
Fuel Used: 
8,097 kg
Cleared Route: EGLL ULTIB HEMEL BUZAD OLNEY WELIN AKUPA TIMPO ELVOS TNT EGCC
TRACK DATA
50,000 ft 1,000 kts
AIRCRAFT INFO AND CUMULATIVE STATS
Aircraft Type: 
B744
Registration: 
SELCAL: 
CPQS
MSN/LN: 
25823 / 1195
Operator: 
Total Flights: 
3
Total Block Time: 
18.2 hrs
Total Flight Time: 
17.2 hrs
Total Fuel Used: 
175,607 kg
DATALINK LOG | Newest first | Current as of: 2022-09-29 23:16:53
LABEL SEQUENCE CONTENT Dn/Up
QD074823:07 48.2▼ Dn
QC580322:58▼ Dn
GA4711ADVANCED GATE ASSIGNMENTS NOT YET AVAILABLE AT THIS AIRPORT▲ Up
GR3730EGCC 22:57 MAAS 02 YP/UM 00/02 WCHR/S/C 00/00/01 HI-VAL YES DIPL/VIP NO▼ Dn
2U3556EGCC 242220Z AUTO VRB03KT 8000 NCD 09/05 Q1035 NOSIG▲ Up
2S3556EGCC▼ Dn
5R3546OLNEY 22:35z FL249 WELIN 22:36z AKUPA 320 25.1 -12 302/12 RW05L 22:57z▼ Dn
5R3544OLNEY 22:35z FL249 WELIN 22:36z AKUPA 320 25.1 -12 302/12 RW05L 22:57z▼ Dn
QB260222:26▼ Dn
QA150922:15 66.1▼ Dn
A32349CLEARED TO EGCC VIA ULTI1K ULTIB T420 TNT DAYN2A. SQUAWK 2704.▲ Up
B31407EGLL EGCC BAW224 G-BYGC G ▼ Dn
A70719CLEARANCE AVAIL WITHIN 0:25 OF EDT▲ Up
B35829EGLL EGCC BAW224 G-BYGC G ▼ Dn
2U5617EGLL 242120Z AUTO 08003KT 9000 NCD 07/04 Q1037 NOSIG▲ Up
2S5617EGLL▼ Dn
A70426CLEARANCE AVAIL WITHIN 0:25 OF EDT▲ Up
B35532EGLL EGCC BAW224 G-BYGC G ▼ Dn
Q00013[LINK ACK]▲ Up
Q05146[LINK TEST]▼ Dn


AIRCRAFT HISTORY
FLIGHT DATE FLIGHT NO. ORIGIN DESTINATION CLEARED ROUTE BLOCK TIME FLIGHT TIME FUEL USED PILOT
2021-11-06BAW297EGCC KLAS EGCC ASMIM WAL AGLIL DIGMA ERDUV LUSOD IBROD AGORI 5920N 6230N 6240N 6050N URTAK IRBIM LAKES GRAND YRL HML DPR DDY MTU BCE KLAS10.7 hrs10.3 hrs228,446 lbZsolt Szivak
2019-02-24BAW224EGLL EGCC EGLL ULTIB HEMEL BUZAD OLNEY WELIN AKUPA TIMPO ELVOS TNT EGCC0.8 hrs0.5 hrs17,851 lb-HIDDEN-
2018-12-26BAW216KIAD EGLL RIGNZ JCOBY GRIIM SOOKI SWANN BROSS STIKY OOD DAVYS BRAND RBV YAHOO VITOL NANSO RAFIN 4550N 4740N 4930N 5020N SOMAX ATSUR LESLU MERLY ASRAX SWANY ABDUK NUMPO OKESI BEDEK NIGIT D271L OCK6.7 hrs6.4 hrs140,850 lb-SUSPENDED-